WetterOnline ( https://www.wetteronline.ch )

Wetter aktuell Lohr

Aktuelles Wetter: Neuhütten/Spessart (340m)

6-stündlich | Neueste Meldungen
Ortszeit Temperatur Wetter
Di, 14.07. 14:00 23.5° C wolkig
Di, 14.07. 8:00 13.2° C leicht bewölkt
Di, 14.07. 2:00 10.7° C wolkig
Mo, 13.07. 20:00 22.0° C wolkenlos
Mo, 13.07. 14:00 21.9° C wolkig
Mo, 13.07. 8:00 12.6° C leicht bewölkt
Mo, 13.07. 2:00 9.3° C wolkig
So, 12.07. 20:00 20.3° C wolkenlos
Ortszeit Temperatur Wetter
Di, 14.07. 15:00 25.0° C leicht bewölkt
Di, 14.07. 14:50 25.0° C leicht bewölkt
Di, 14.07. 14:40 24.7° C leicht bewölkt
Di, 14.07. 14:30 24.0° C leicht bewölkt
Di, 14.07. 14:20 24.0° C leicht bewölkt
Di, 14.07. 14:10 23.8° C leicht bewölkt
Di, 14.07. 14:00 23.5° C wolkig
Di, 14.07. 13:30 23.8° C leicht bewölkt
Di, 14.07. 13:00 24.0° C bewölkt
Di, 14.07. 12:30 22.1° C bedeckt
Di, 14.07. 12:00 22.1° C bedeckt
Ortszeit Relative Feuchte Sichtweite
Di, 14.07. 14:00 35% 40 km
Di, 14.07. 8:00 75% 55 km
Di, 14.07. 2:00 86% 50 km
Mo, 13.07. 20:00 37% >70 km
Mo, 13.07. 14:00 38% 55 km
Mo, 13.07. 8:00 74% >70 km
Mo, 13.07. 2:00 89% 65 km
So, 12.07. 20:00 38% 65 km
Ortszeit Relative Feuchte Sichtweite
Di, 14.07. 15:00 31% 45 km
Di, 14.07. 14:50 31% -
Di, 14.07. 14:40 32% -
Di, 14.07. 14:30 36% >70 km
Di, 14.07. 14:20 36% -
Di, 14.07. 14:10 34% -
Di, 14.07. 14:00 35% 40 km
Di, 14.07. 13:30 34% >70 km
Di, 14.07. 13:00 34% 50 km
Di, 14.07. 12:30 41% 50 km
Di, 14.07. 12:00 40% 60 km
Ortszeit Niederschlagsmenge Niederschlagsart
Di, 14.07. 14:00 0.0 l/m2 in 6 Std. -
Di, 14.07. 8:00 0.1 l/m2 in 12 Std. -
Di, 14.07. 2:00 0.1 l/m2 in 6 Std. Niederschlag
Mo, 13.07. 20:00 0.0 l/m2 in 12 Std. -
Mo, 13.07. 14:00 0.0 l/m2 in 6 Std. -
Mo, 13.07. 8:00 0.0 l/m2 in 12 Std. -
Mo, 13.07. 2:00 0.0 l/m2 in 6 Std. -
So, 12.07. 20:00 0.0 l/m2 in 12 Std. -
Ortszeit Niederschlagsmenge Niederschlagsart
Di, 14.07. 15:00 0.0 l/m2 in 1 Std. -
Di, 14.07. 14:50 keine Meldung -
Di, 14.07. 14:40 keine Meldung -
Di, 14.07. 14:30 0.0 l/m2 in 1 Std. -
Di, 14.07. 14:20 keine Meldung -
Di, 14.07. 14:10 keine Meldung -
Di, 14.07. 14:00 0.0 l/m2 in 1 Std. -
Di, 14.07. 13:30 0.0 l/m2 in 1 Std. -
Di, 14.07. 13:00 0.0 l/m2 in 1 Std. -
Di, 14.07. 12:30 0.0 l/m2 in 1 Std. -
Di, 14.07. 12:00 0.0 l/m2 in 1 Std. -
Ortszeit Stärke Spitze Richtung
km/h Bft. km/h Grad Sektor
Di, 14.07. 14:00 14 3 25 200° S
Di, 14.07. 8:00 2 1 4 70° O
Di, 14.07. 2:00 0 0 11 - -
Mo, 13.07. 20:00 9 2 30 60° NO
Mo, 13.07. 14:00 11 2 25 60° NO
Mo, 13.07. 8:00 0 0 18 - -
Mo, 13.07. 2:00 4 1 14 270° W
So, 12.07. 20:00 7 2 25 60° NO
Ortszeit Stärke Spitze Richtung
km/h Bft. km/h Grad Sektor
Di, 14.07. 15:00 11 2 25 230° SW
Di, 14.07. 14:50 11 2 - 230° SW
Di, 14.07. 14:40 11 2 - 200° S
Di, 14.07. 14:30 7 2 22 240° SW
Di, 14.07. 14:20 7 2 - 240° SW
Di, 14.07. 14:10 4 1 - 250° W
Di, 14.07. 14:00 14 3 25 200° S
Di, 14.07. 13:30 17 3 24 210° SW
Di, 14.07. 13:00 7 2 11 180° S
Di, 14.07. 12:30 7 2 11 250° W
Di, 14.07. 12:00 11 2 18 230° SW
Ortszeit Untergrenze Bedeckung Gattung
total tief tief mittel hoch
Di, 14.07. 14:00 3000 m 5/8 4/8 - - -
Di, 14.07. 8:00 2400 m 4/8 3/8 - - -
Di, 14.07. 2:00 9000 m 8/8 0/8 - - -
Mo, 13.07. 20:00 - 0/8 0/8 - - -
Mo, 13.07. 14:00 1800 m 7/8 4/8 - - -
Mo, 13.07. 8:00 7500 m 6/8 0/8 - - -
Mo, 13.07. 2:00 10500 m 7/8 0/8 - - -
So, 12.07. 20:00 - 0/8 0/8 - - -
Ortszeit Bedeckungsgrad in Achtel und Wolkenuntergrenze
Di, 14.07. 15:00 2(3000m) 3(6600m)
Di, 14.07. 14:50 2(3000m) 3(6600m) 3(9000m)
Di, 14.07. 14:40 1(2100m) 4(6600m) 4(9000m)
Di, 14.07. 14:30 3(2100m) 5(3000m)
Di, 14.07. 14:20 3(2100m) 5(3000m)
Di, 14.07. 14:10 3(2100m) 5(3000m)
Di, 14.07. 14:00 4(3000m) 5(7200m)
Di, 14.07. 13:30 2(2100m) 3(2700m) 4(7200m)
Di, 14.07. 13:00 4(3000m) 7(6600m) 7(7500m)
Di, 14.07. 12:30 3(1800m) 8(2400m) 7(7200m)
Di, 14.07. 12:00 3(1800m) 8(2400m)
Ortszeit Luftdruck NN (hPa) Tendenz (hPa in 3 Std.)
Di, 14.07. 14:00 1013 - 1,4
Di, 14.07. 8:00 1017 - 0,5
Di, 14.07. 2:00 1019 - 0,8
Mo, 13.07. 20:00 1019 - 1,2
Mo, 13.07. 14:00 1022 - 1,6
Mo, 13.07. 8:00 1025 - 0,2
Mo, 13.07. 2:00 1026 - 0,5
So, 12.07. 20:00 1025 - 0,4
Ortszeit Luftdruck NN (hPa) Tendenz (hPa in 3 Std.)
Di, 14.07. 15:00 1013 - 1,6
Di, 14.07. 14:50 1013 keine Meldung
Di, 14.07. 14:40 1013 keine Meldung
Di, 14.07. 14:30 1013 - 1,5
Di, 14.07. 14:20 1013 keine Meldung
Di, 14.07. 14:10 1013 keine Meldung
Di, 14.07. 14:00 1013 - 1,4
Di, 14.07. 13:30 1014 - 1,5
Di, 14.07. 13:00 1014 - 1,5
Di, 14.07. 12:30 1014 - 1,3
Di, 14.07. 12:00 1015 - 1,1
Ortszeit Schneehöhe (cm)
Di, 14.07. 14:00 -
Di, 14.07. 8:00 -
Di, 14.07. 2:00 -
Mo, 13.07. 20:00 -
Mo, 13.07. 14:00 -
Mo, 13.07. 8:00 -
Mo, 13.07. 2:00 -
So, 12.07. 20:00 -
Ortszeit Schneehöhe (cm)
Di, 14.07. 15:00 -
Di, 14.07. 14:50 -
Di, 14.07. 14:40 -
Di, 14.07. 14:30 -
Di, 14.07. 14:20 -
Di, 14.07. 14:10 -
Di, 14.07. 14:00 -
Di, 14.07. 13:30 -
Di, 14.07. 13:00 -
Di, 14.07. 12:30 -
Di, 14.07. 12:00 -
Link zu dieser Seite / Seite empfehlen

Das Wetter in ...